createdAt,value
2017-11-17T00:01:27.808Z,10.59
2017-11-17T00:03:29.585Z,10.57
2017-11-17T00:05:31.299Z,10.57
2017-11-17T00:07:33.377Z,10.58
2017-11-17T00:09:35.240Z,10.58
2017-11-17T00:11:36.972Z,10.60
2017-11-17T00:13:38.459Z,10.58
2017-11-17T00:15:40.831Z,10.59
2017-11-17T00:17:42.471Z,10.59
2017-11-17T00:19:44.216Z,10.58
2017-11-17T00:21:45.981Z,10.59
2017-11-17T00:23:47.535Z,10.58
2017-11-17T00:25:49.590Z,10.59
2017-11-17T00:27:51.234Z,10.59
2017-11-17T00:29:52.619Z,10.57
2017-11-17T00:31:54.134Z,10.59
2017-11-17T00:33:55.672Z,10.60
2017-11-17T00:35:57.092Z,10.60
2017-11-17T00:37:58.595Z,10.59
2017-11-17T00:40:00.229Z,10.60
2017-11-17T00:42:01.664Z,10.58
2017-11-17T00:44:03.643Z,10.58
2017-11-17T00:46:05.559Z,10.59
2017-11-17T00:48:07.261Z,10.58
2017-11-17T00:50:09.108Z,10.59
2017-11-17T00:52:11.587Z,10.57
2017-11-17T00:54:13.227Z,10.58
2017-11-17T00:56:15.894Z,10.56
2017-11-17T00:58:17.177Z,10.57
2017-11-17T01:00:19.889Z,10.58
2017-11-17T01:02:21.270Z,10.58
2017-11-17T01:04:22.645Z,10.57
2017-11-17T01:06:27.603Z,10.57
2017-11-17T01:08:29.623Z,10.55
2017-11-17T01:10:31.479Z,10.54
2017-11-17T01:12:32.769Z,10.54
2017-11-17T01:14:35.081Z,10.54
2017-11-17T01:16:36.505Z,10.55
2017-11-17T01:18:38.191Z,10.56
2017-11-17T01:20:40.033Z,10.54
2017-11-17T01:22:42.420Z,10.54
2017-11-17T01:24:44.375Z,10.55
2017-11-17T01:26:46.855Z,10.56
2017-11-17T01:28:48.703Z,10.54
2017-11-17T01:30:49.972Z,10.55
2017-11-17T01:32:51.492Z,10.56
2017-11-17T01:34:52.840Z,10.54
2017-11-17T01:36:54.407Z,10.54
2017-11-17T01:38:56.033Z,10.54
2017-11-17T01:40:58.520Z,10.55
2017-11-17T01:43:00.272Z,10.53
2017-11-17T01:45:02.236Z,10.53
2017-11-17T01:47:04.694Z,10.53
2017-11-17T01:49:06.261Z,10.52
2017-11-17T01:51:08.730Z,10.54
2017-11-17T01:53:10.379Z,10.54
2017-11-17T01:55:12.025Z,10.54
2017-11-17T01:57:13.676Z,10.54
2017-11-17T01:59:15.017Z,10.54
2017-11-17T02:01:17.035Z,10.54
2017-11-17T02:03:21.001Z,10.54
2017-11-17T02:05:22.557Z,10.54
2017-11-17T02:07:23.859Z,10.54
2017-11-17T02:09:25.344Z,10.55
2017-11-17T02:11:26.592Z,10.54
2017-11-17T02:13:28.445Z,10.54
2017-11-17T02:15:30.719Z,10.55
2017-11-17T02:17:32.148Z,10.55
2017-11-17T02:19:35.031Z,10.57
2017-11-17T02:21:36.695Z,10.56
2017-11-17T02:23:38.144Z,10.55
2017-11-17T02:25:40.706Z,10.56
2017-11-17T02:27:42.149Z,10.57
2017-11-17T02:29:43.727Z,10.57
2017-11-17T02:31:45.163Z,10.55
2017-11-17T02:33:47.847Z,10.56
2017-11-17T02:35:49.290Z,10.58
2017-11-17T02:37:50.733Z,10.55
2017-11-17T02:39:52.178Z,10.56
2017-11-17T02:41:53.726Z,10.55
2017-11-17T02:43:55.069Z,10.55
2017-11-17T02:45:56.731Z,10.55
2017-11-17T02:47:58.000Z,10.55
2017-11-17T02:50:01.771Z,10.54
2017-11-17T02:52:03.113Z,10.54
2017-11-17T02:54:04.472Z,10.51
2017-11-17T02:56:05.946Z,10.54
2017-11-17T02:58:07.448Z,10.53
2017-11-17T03:00:09.123Z,10.54
2017-11-17T03:02:11.814Z,10.56
2017-11-17T03:04:14.170Z,10.55
2017-11-17T03:06:15.532Z,10.52
2017-11-17T03:08:17.000Z,10.54
2017-11-17T03:10:18.928Z,10.53
2017-11-17T03:12:20.578Z,10.56
2017-11-17T03:14:22.115Z,10.55
2017-11-17T03:16:23.671Z,10.56
2017-11-17T03:18:25.441Z,10.56
2017-11-17T03:20:26.858Z,10.58
2017-11-17T03:22:30.394Z,10.57
2017-11-17T03:24:31.922Z,10.55
2017-11-17T03:26:33.465Z,10.54
2017-11-17T03:28:34.845Z,10.55
2017-11-17T03:30:36.177Z,10.56
2017-11-17T03:32:37.603Z,10.57
2017-11-17T03:34:39.387Z,10.57
2017-11-17T03:36:41.034Z,10.58
2017-11-17T03:38:42.336Z,10.57
2017-11-17T03:40:44.338Z,10.58
2017-11-17T03:42:46.609Z,10.55
2017-11-17T03:44:47.906Z,10.55
2017-11-17T03:46:49.214Z,10.57
2017-11-17T03:48:50.738Z,10.55
2017-11-17T03:50:52.296Z,10.56
2017-11-17T03:52:53.940Z,10.54
2017-11-17T03:54:55.608Z,10.55
2017-11-17T03:56:56.865Z,10.59
2017-11-17T03:58:58.410Z,10.58
2017-11-17T04:01:00.034Z,10.58
2017-11-17T04:03:01.436Z,10.56
2017-11-17T04:05:03.172Z,10.56
2017-11-17T04:07:04.918Z,10.58
2017-11-17T04:09:06.561Z,10.57
2017-11-17T04:11:08.098Z,10.56
2017-11-17T04:13:10.369Z,10.57
2017-11-17T04:15:11.815Z,10.55
2017-11-17T04:17:13.246Z,10.56
2017-11-17T04:19:14.916Z,10.54
2017-11-17T04:21:16.380Z,10.53
2017-11-17T04:23:18.021Z,10.53
2017-11-17T04:25:19.669Z,10.53
2017-11-17T04:27:21.219Z,10.52
2017-11-17T04:29:22.880Z,10.54
2017-11-17T04:31:25.155Z,10.54
2017-11-17T04:33:26.797Z,10.53
2017-11-17T04:35:28.452Z,10.52
2017-11-17T04:37:30.013Z,10.54
2017-11-17T04:39:32.235Z,10.52
2017-11-17T04:41:33.812Z,10.51
2017-11-17T04:43:35.371Z,10.52
2017-11-17T04:45:36.673Z,10.52
2017-11-17T04:47:38.891Z,10.52
2017-11-17T04:49:40.520Z,10.52
2017-11-17T04:51:43.019Z,10.52
2017-11-17T04:53:45.384Z,10.50
2017-11-17T04:55:46.912Z,10.52
2017-11-17T04:57:48.584Z,10.52
2017-11-17T04:59:50.018Z,10.52
2017-11-17T05:01:51.683Z,10.53
2017-11-17T05:03:53.229Z,10.52
2017-11-17T05:05:54.772Z,10.51
2017-11-17T05:07:56.524Z,10.52
2017-11-17T05:09:57.963Z,10.54
2017-11-17T05:11:59.415Z,10.55
2017-11-17T05:14:00.914Z,10.53
2017-11-17T05:16:02.495Z,10.54
2017-11-17T05:18:03.892Z,10.54
2017-11-17T05:20:05.151Z,10.53
2017-11-17T05:22:06.663Z,10.53
2017-11-17T05:24:08.318Z,10.53
2017-11-17T05:26:10.077Z,10.54
2017-11-17T05:28:12.335Z,10.51
2017-11-17T05:30:13.809Z,10.51
2017-11-17T05:32:15.467Z,10.50
2017-11-17T05:34:16.989Z,10.52
2017-11-17T05:36:18.748Z,10.51
2017-11-17T05:38:20.429Z,10.51
2017-11-17T05:40:21.954Z,10.50
2017-11-17T05:42:23.615Z,10.51
2017-11-17T05:44:25.251Z,10.51
2017-11-17T05:46:27.166Z,10.50
2017-11-17T05:48:29.387Z,10.48
2017-11-17T05:50:32.193Z,10.47
2017-11-17T05:52:33.700Z,10.46
2017-11-17T05:54:35.179Z,10.46
2017-11-17T05:56:36.778Z,10.46
2017-11-17T05:58:38.343Z,10.46
2017-11-17T06:00:40.018Z,10.45
2017-11-17T06:02:41.921Z,10.46
2017-11-17T06:04:43.519Z,10.47
2017-11-17T06:06:45.487Z,10.45
2017-11-17T06:08:47.352Z,10.45
2017-11-17T06:10:48.907Z,10.44
2017-11-17T06:12:50.567Z,10.44
2017-11-17T06:14:52.106Z,10.43
2017-11-17T06:16:53.775Z,10.43
2017-11-17T06:18:55.414Z,10.41
2017-11-17T06:20:57.080Z,10.45
2017-11-17T06:22:58.503Z,10.43
2017-11-17T06:25:00.171Z,10.42
2017-11-17T06:27:01.726Z,10.40
2017-11-17T06:29:03.486Z,10.41
2017-11-17T06:31:05.184Z,10.41
2017-11-17T06:33:06.891Z,10.40
2017-11-17T06:35:08.471Z,10.40
2017-11-17T06:37:09.990Z,10.40
2017-11-17T06:39:11.730Z,10.41
2017-11-17T06:41:13.288Z,10.40
2017-11-17T06:43:14.946Z,10.39
2017-11-17T06:45:16.591Z,10.40
2017-11-17T06:47:18.353Z,10.37
2017-11-17T06:49:20.003Z,10.38
2017-11-17T06:51:21.577Z,10.39
2017-11-17T06:53:23.136Z,10.37
2017-11-17T06:55:24.750Z,10.37
2017-11-17T06:57:26.618Z,10.38
2017-11-17T06:59:28.238Z,10.37
2017-11-17T07:01:29.732Z,10.36
2017-11-17T07:03:31.381Z,10.36
2017-11-17T07:05:33.028Z,10.34
2017-11-17T07:07:34.640Z,10.35
2017-11-17T07:09:36.325Z,10.35
2017-11-17T07:11:37.776Z,10.36
2017-11-17T07:13:39.362Z,10.35
2017-11-17T07:15:40.998Z,10.22
2017-11-17T07:17:42.386Z,10.21
2017-11-17T07:19:43.975Z,10.25
2017-11-17T07:21:45.641Z,10.27
2017-11-17T07:23:47.296Z,10.32
2017-11-17T07:25:49.041Z,10.30
2017-11-17T07:27:50.414Z,10.28
2017-11-17T07:29:52.130Z,10.28
2017-11-17T07:31:53.582Z,10.27
2017-11-17T07:33:55.240Z,10.28
2017-11-17T07:35:56.987Z,10.26
2017-11-17T07:37:58.646Z,10.25
2017-11-17T07:40:00.301Z,10.24
2017-11-17T07:42:02.166Z,10.24
2017-11-17T07:44:04.752Z,10.23
2017-11-17T07:46:06.388Z,10.23
2017-11-17T07:48:08.053Z,10.21
2017-11-17T07:50:09.696Z,10.22
2017-11-17T07:52:11.099Z,10.22
2017-11-17T07:54:12.791Z,10.19
2017-11-17T07:56:14.444Z,10.18
2017-11-17T07:58:16.102Z,10.17
2017-11-17T08:00:17.840Z,10.16
2017-11-17T08:02:19.399Z,10.16
2017-11-17T08:04:21.170Z,10.14
2017-11-17T08:06:22.919Z,10.16
2017-11-17T08:08:24.566Z,10.15
2017-11-17T08:10:26.333Z,10.14
2017-11-17T08:12:27.976Z,10.13
2017-11-17T08:14:29.738Z,10.14
2017-11-17T08:16:31.392Z,10.13
2017-11-17T08:18:33.043Z,10.13
2017-11-17T08:20:34.609Z,10.13
2017-11-17T08:22:37.772Z,10.12
2017-11-17T08:24:39.428Z,10.11
2017-11-17T08:26:41.186Z,10.12
2017-11-17T08:28:42.849Z,10.08
2017-11-17T08:30:44.497Z,10.09
2017-11-17T08:32:46.142Z,10.07
2017-11-17T08:34:48.617Z,10.08
2017-11-17T08:36:50.257Z,10.09
2017-11-17T08:38:51.936Z,10.06
2017-11-17T08:40:53.483Z,10.07
2017-11-17T08:42:55.123Z,10.04
2017-11-17T08:44:56.789Z,10.06
2017-11-17T08:46:58.342Z,10.07
2017-11-17T08:49:00.694Z,10.06
2017-11-17T08:51:02.190Z,10.05
2017-11-17T08:53:04.016Z,10.03
2017-11-17T08:55:05.608Z,10.01
2017-11-17T08:57:07.104Z,9.94
2017-11-17T08:59:08.875Z,9.95
2017-11-17T09:01:10.306Z,9.89
2017-11-17T09:03:12.083Z,9.91
2017-11-17T09:05:13.725Z,9.94
2017-11-17T09:07:15.563Z,9.96
2017-11-17T09:09:16.960Z,9.93
2017-11-17T09:11:18.574Z,9.89
2017-11-17T09:13:20.452Z,9.89
2017-11-17T09:15:22.295Z,9.88
2017-11-17T09:17:23.932Z,9.87
2017-11-17T09:19:26.024Z,9.89
2017-11-17T09:21:27.666Z,9.91
2017-11-17T09:23:29.305Z,9.90
2017-11-17T09:25:30.964Z,9.84
2017-11-17T09:27:32.836Z,9.86
2017-11-17T09:29:34.174Z,9.87
2017-11-17T09:31:35.735Z,9.80
2017-11-17T09:33:37.385Z,9.83
2017-11-17T09:35:39.019Z,9.82
2017-11-17T09:37:40.563Z,9.81
2017-11-17T09:39:42.128Z,9.77
2017-11-17T09:41:43.772Z,9.81
2017-11-17T09:43:45.543Z,9.81
2017-11-17T09:45:47.303Z,9.79
2017-11-17T09:47:48.926Z,9.79
2017-11-17T09:49:50.589Z,9.82
2017-11-17T09:51:52.256Z,9.85
2017-11-17T09:53:53.796Z,9.82
2017-11-17T09:55:55.176Z,9.78
2017-11-17T09:57:56.802Z,9.77
2017-11-17T09:59:58.367Z,9.81
2017-11-17T10:01:59.993Z,9.80
2017-11-17T10:04:01.663Z,9.80
2017-11-17T10:06:03.402Z,9.79
2017-11-17T10:08:05.071Z,9.80
2017-11-17T10:10:06.826Z,9.80
2017-11-17T10:12:08.470Z,9.79
2017-11-17T10:14:10.111Z,9.78
2017-11-17T10:16:11.664Z,9.78
2017-11-17T10:18:13.232Z,9.78
2017-11-17T10:20:14.765Z,9.82
2017-11-17T10:22:16.440Z,9.83
2017-11-17T10:24:17.987Z,9.81
2017-11-17T10:26:19.633Z,9.81
2017-11-17T10:28:21.092Z,9.79
2017-11-17T10:30:22.534Z,9.78
2017-11-17T10:32:24.184Z,9.77
2017-11-17T10:34:25.824Z,9.78
2017-11-17T10:36:27.486Z,9.76
2017-11-17T10:38:29.158Z,9.77
2017-11-17T10:40:30.703Z,9.78
2017-11-17T10:42:32.365Z,9.78
2017-11-17T10:44:34.093Z,9.76
2017-11-17T10:46:35.540Z,9.77
2017-11-17T10:48:37.204Z,9.74
2017-11-17T10:50:40.802Z,9.78
2017-11-17T10:52:42.559Z,9.80
2017-11-17T10:54:44.118Z,9.80
2017-11-17T10:56:45.529Z,9.77
2017-11-17T10:58:47.319Z,9.79
2017-11-17T11:00:48.955Z,9.76
2017-11-17T11:02:50.605Z,9.76
2017-11-17T11:04:52.271Z,9.74
2017-11-17T11:06:53.705Z,9.79
2017-11-17T11:08:55.189Z,9.79
2017-11-17T11:10:57.011Z,9.76
2017-11-17T11:12:58.468Z,9.73
2017-11-17T11:15:00.123Z,9.72
2017-11-17T11:17:01.871Z,9.74
2017-11-17T11:19:03.522Z,9.76
2017-11-17T11:21:05.073Z,9.80
2017-11-17T11:23:06.728Z,9.74
2017-11-17T11:25:08.288Z,9.76
2017-11-17T11:27:10.271Z,9.75
2017-11-17T11:29:12.098Z,9.76
2017-11-17T11:31:14.056Z,9.75
2017-11-17T11:33:15.617Z,9.77
2017-11-17T11:35:17.257Z,9.76
2017-11-17T11:37:19.015Z,9.77
2017-11-17T11:39:20.668Z,9.78
2017-11-17T11:41:22.130Z,9.76
2017-11-17T11:43:23.885Z,9.74
2017-11-17T11:45:25.519Z,9.75
2017-11-17T11:47:27.088Z,9.76
2017-11-17T11:49:28.743Z,9.74
2017-11-17T11:51:30.382Z,9.75
2017-11-17T11:53:32.028Z,9.77
2017-11-17T11:55:33.703Z,9.77
2017-11-17T11:57:35.357Z,9.73
2017-11-17T11:59:36.906Z,9.75
2017-11-17T12:01:38.477Z,9.74
2017-11-17T12:03:40.818Z,9.75
2017-11-17T12:05:42.572Z,10.00
2017-11-17T12:07:44.224Z,10.55
2017-11-17T12:09:45.866Z,10.89
2017-11-17T12:11:47.524Z,11.22
2017-11-17T12:13:49.083Z,11.42
2017-11-17T12:15:50.939Z,11.62
2017-11-17T12:17:52.750Z,11.86
2017-11-17T12:19:54.152Z,12.00
2017-11-17T12:21:55.631Z,12.10
2017-11-17T12:23:57.046Z,12.15
2017-11-17T12:25:58.690Z,12.20
2017-11-17T12:28:01.878Z,12.29
2017-11-17T12:30:04.258Z,12.27
2017-11-17T12:32:05.898Z,12.39
2017-11-17T12:34:07.456Z,12.41
2017-11-17T12:36:09.105Z,12.46
2017-11-17T12:38:10.656Z,12.48
2017-11-17T12:40:12.300Z,12.39
2017-11-17T12:42:13.960Z,12.44
2017-11-17T12:44:15.405Z,12.53
2017-11-17T12:46:17.055Z,12.58
2017-11-17T12:48:18.710Z,12.60
2017-11-17T12:50:20.478Z,12.62
2017-11-17T12:52:22.113Z,12.66
2017-11-17T12:54:23.778Z,12.66
2017-11-17T12:56:25.424Z,12.67
2017-11-17T12:58:27.067Z,12.68
2017-11-17T13:00:28.527Z,12.69
2017-11-17T13:02:30.184Z,12.68
2017-11-17T13:04:31.970Z,12.71
2017-11-17T13:06:33.520Z,12.73
2017-11-17T13:08:35.138Z,12.69
2017-11-17T13:10:36.907Z,12.72
2017-11-17T13:12:38.559Z,12.74
2017-11-17T13:14:40.104Z,12.75
2017-11-17T13:16:41.632Z,12.78
2017-11-17T13:18:46.172Z,12.76
2017-11-17T13:20:47.956Z,12.74
2017-11-17T13:22:49.893Z,12.71
2017-11-17T13:24:51.439Z,12.71
2017-11-17T13:26:52.996Z,12.75
2017-11-17T13:28:54.393Z,12.75
2017-11-17T13:30:55.784Z,12.73
2017-11-17T13:32:57.185Z,12.69
2017-11-17T13:34:58.885Z,12.68
2017-11-17T13:37:00.541Z,12.68
2017-11-17T13:39:02.096Z,12.66
2017-11-17T13:41:03.748Z,12.64
2017-11-17T13:43:05.303Z,12.66
2017-11-17T13:45:06.843Z,12.64
2017-11-17T13:47:08.317Z,12.66
2017-11-17T13:49:09.937Z,12.63
2017-11-17T13:51:11.604Z,12.62
2017-11-17T13:53:13.113Z,12.62
2017-11-17T13:55:14.795Z,12.61
2017-11-17T13:57:16.558Z,12.60
2017-11-17T13:59:18.092Z,12.60
2017-11-17T14:01:19.658Z,12.58
2017-11-17T14:03:21.204Z,12.58
2017-11-17T14:05:22.952Z,12.54
2017-11-17T14:07:24.617Z,12.56
2017-11-17T14:09:26.162Z,12.55
2017-11-17T14:11:27.651Z,12.53
2017-11-17T14:13:29.012Z,12.51
2017-11-17T14:15:30.519Z,12.51
2017-11-17T14:17:32.260Z,12.47
2017-11-17T14:19:33.733Z,12.45
2017-11-17T14:21:35.378Z,12.45
2017-11-17T14:23:36.911Z,12.45
2017-11-17T14:25:38.589Z,12.43
2017-11-17T14:27:40.337Z,12.43
2017-11-17T14:29:41.968Z,12.42
2017-11-17T14:31:43.508Z,12.39
2017-11-17T14:33:45.090Z,12.40
2017-11-17T14:35:46.845Z,12.38
2017-11-17T14:37:48.276Z,12.37
2017-11-17T14:39:49.833Z,12.34
2017-11-17T14:41:51.498Z,12.33
2017-11-17T14:43:53.142Z,12.33
2017-11-17T14:45:54.783Z,12.34
2017-11-17T14:47:56.448Z,12.31
2017-11-17T14:49:57.998Z,12.29
2017-11-17T14:51:59.741Z,12.30
2017-11-17T14:54:01.405Z,12.29
2017-11-17T14:56:03.061Z,12.28
2017-11-17T14:58:04.714Z,12.26
2017-11-17T15:00:06.288Z,12.24
2017-11-17T15:02:08.012Z,12.24
2017-11-17T15:04:09.941Z,12.23
2017-11-17T15:06:12.228Z,12.20
2017-11-17T15:08:13.819Z,12.18
2017-11-17T15:10:15.343Z,12.17
2017-11-17T15:12:17.603Z,12.16
2017-11-17T15:14:19.195Z,12.13
2017-11-17T15:16:20.826Z,12.11
2017-11-17T15:18:22.359Z,11.97
2017-11-17T15:20:23.785Z,11.59
2017-11-17T15:22:25.154Z,11.31
2017-11-17T15:24:26.509Z,11.07
2017-11-17T15:26:28.063Z,10.93
2017-11-17T15:28:30.109Z,10.78
2017-11-17T15:30:31.574Z,10.72
2017-11-17T15:32:32.911Z,10.74
2017-11-17T15:34:34.147Z,10.77
2017-11-17T15:36:35.921Z,10.69
2017-11-17T15:38:37.570Z,10.60
2017-11-17T15:40:39.212Z,10.55
2017-11-17T15:42:40.760Z,10.47
2017-11-17T15:44:42.433Z,10.48
2017-11-17T15:46:43.985Z,10.43
2017-11-17T15:48:46.652Z,10.43
2017-11-17T15:50:50.031Z,10.36
2017-11-17T15:52:51.597Z,10.31
2017-11-17T15:54:53.232Z,10.22
2017-11-17T15:56:54.798Z,10.16
2017-11-17T15:58:56.362Z,10.13
2017-11-17T16:00:57.989Z,10.09
2017-11-17T16:02:59.449Z,10.04
2017-11-17T16:05:00.994Z,9.99
2017-11-17T16:07:02.442Z,10.01
2017-11-17T16:09:04.193Z,10.13
2017-11-17T16:11:05.767Z,10.23
2017-11-17T16:13:07.407Z,10.34
2017-11-17T16:15:09.063Z,10.42
2017-11-17T16:17:10.608Z,10.46
2017-11-17T16:19:12.255Z,10.47
2017-11-17T16:21:13.704Z,10.47
2017-11-17T16:23:15.054Z,10.47
2017-11-17T16:25:16.607Z,10.47
2017-11-17T16:27:18.348Z,10.48
2017-11-17T16:29:19.793Z,10.45
2017-11-17T16:31:21.337Z,10.45
2017-11-17T16:33:22.679Z,10.46
2017-11-17T16:35:24.041Z,10.43
2017-11-17T16:37:25.695Z,10.43
2017-11-17T16:39:27.463Z,10.42
2017-11-17T16:41:29.011Z,10.43
2017-11-17T16:43:30.670Z,10.41
2017-11-17T16:45:32.434Z,10.37
2017-11-17T16:47:33.861Z,10.37
2017-11-17T16:49:36.996Z,10.38
2017-11-17T16:51:38.590Z,10.34
2017-11-17T16:53:39.922Z,10.36
2017-11-17T16:55:41.395Z,10.34
2017-11-17T16:57:42.943Z,10.35
2017-11-17T16:59:44.603Z,10.33
2017-11-17T17:01:46.260Z,10.30
2017-11-17T17:03:47.820Z,10.27
2017-11-17T17:05:49.363Z,10.27
2017-11-17T17:07:51.333Z,10.26
2017-11-17T17:09:52.976Z,10.25
2017-11-17T17:11:54.406Z,10.23
2017-11-17T17:13:56.064Z,10.23
2017-11-17T17:15:57.515Z,10.22
2017-11-17T17:17:58.861Z,10.21
2017-11-17T17:20:00.546Z,10.19
2017-11-17T17:22:01.985Z,10.15
2017-11-17T17:24:03.538Z,10.15
2017-11-17T17:26:06.359Z,10.13
2017-11-17T17:28:07.752Z,10.12
2017-11-17T17:30:09.277Z,10.11
2017-11-17T17:32:10.940Z,10.13
2017-11-17T17:34:12.601Z,10.10
2017-11-17T17:36:14.108Z,10.06
2017-11-17T17:38:15.450Z,10.06
2017-11-17T17:40:16.951Z,10.04
2017-11-17T17:42:18.268Z,10.03
2017-11-17T17:44:19.611Z,10.00
2017-11-17T17:46:20.831Z,9.99
2017-11-17T17:48:22.423Z,9.98
2017-11-17T17:50:23.858Z,9.96
2017-11-17T17:52:25.221Z,9.94
2017-11-17T17:54:26.776Z,9.92
2017-11-17T17:56:28.194Z,9.89
2017-11-17T17:58:29.556Z,9.89
2017-11-17T18:00:30.896Z,9.87
2017-11-17T18:02:32.370Z,9.85
2017-11-17T18:04:33.922Z,9.84
2017-11-17T18:06:35.457Z,9.85
2017-11-17T18:08:37.017Z,9.82
2017-11-17T18:10:38.344Z,9.81
2017-11-17T18:12:39.903Z,9.80
2017-11-17T18:14:41.258Z,9.79
2017-11-17T18:16:42.815Z,9.78
2017-11-17T18:18:44.442Z,9.77
2017-11-17T18:20:46.818Z,9.75
2017-11-17T18:22:48.299Z,9.73
2017-11-17T18:24:49.966Z,9.71
2017-11-17T18:26:55.377Z,9.69
2017-11-17T18:28:57.018Z,9.69
2017-11-17T18:30:58.347Z,9.67
2017-11-17T18:33:00.157Z,9.66
2017-11-17T18:35:01.680Z,9.66
2017-11-17T18:37:03.201Z,9.67
2017-11-17T18:39:04.813Z,9.66
2017-11-17T18:41:06.427Z,9.68
2017-11-17T18:43:08.080Z,9.65
2017-11-17T18:45:09.651Z,9.63
2017-11-17T18:47:11.057Z,9.63
2017-11-17T18:49:12.417Z,9.64
2017-11-17T18:51:13.876Z,9.61
2017-11-17T18:53:16.043Z,9.62
2017-11-17T18:55:17.683Z,9.63
2017-11-17T18:57:19.389Z,9.62
2017-11-17T18:59:21.033Z,9.60
2017-11-17T19:01:22.761Z,9.59
2017-11-17T19:03:24.633Z,9.61
2017-11-17T19:05:26.164Z,9.56
2017-11-17T19:07:27.473Z,9.56
2017-11-17T19:09:28.968Z,9.56
2017-11-17T19:11:30.394Z,9.55
2017-11-17T19:13:31.626Z,9.53
2017-11-17T19:15:32.958Z,9.52
2017-11-17T19:17:34.343Z,9.53
2017-11-17T19:19:35.789Z,9.52
2017-11-17T19:21:37.117Z,9.53
2017-11-17T19:23:38.385Z,9.50
2017-11-17T19:25:39.931Z,9.49
2017-11-17T19:27:43.157Z,9.49
2017-11-17T19:29:44.758Z,9.46
2017-11-17T19:31:46.096Z,9.47
2017-11-17T19:33:47.764Z,9.45
2017-11-17T19:35:49.311Z,9.44
2017-11-17T19:37:50.620Z,9.43
2017-11-17T19:39:51.956Z,9.41
2017-11-17T19:41:53.353Z,9.40
2017-11-17T19:43:54.789Z,9.40
2017-11-17T19:45:57.261Z,9.39
2017-11-17T19:47:58.835Z,9.39
2017-11-17T19:50:00.252Z,9.40
2017-11-17T19:52:02.835Z,9.41
2017-11-17T19:54:04.199Z,9.39
2017-11-17T19:56:05.453Z,9.38
2017-11-17T19:58:06.725Z,9.38
2017-11-17T20:00:08.955Z,9.36
2017-11-17T20:02:11.104Z,9.35
2017-11-17T20:04:12.655Z,9.34
2017-11-17T20:06:14.107Z,9.37
2017-11-17T20:08:15.544Z,9.32
2017-11-17T20:10:17.010Z,9.32
2017-11-17T20:12:18.454Z,9.34
2017-11-17T20:14:20.018Z,9.31
2017-11-17T20:16:21.674Z,9.29
2017-11-17T20:18:23.000Z,9.30
2017-11-17T20:20:25.068Z,9.30
2017-11-17T20:22:26.631Z,9.29
2017-11-17T20:24:28.068Z,9.29
2017-11-17T20:26:29.393Z,9.29
2017-11-17T20:28:30.713Z,9.28
2017-11-17T20:30:32.153Z,9.27
2017-11-17T20:32:33.977Z,9.28
2017-11-17T20:34:35.500Z,9.25
2017-11-17T20:36:36.929Z,9.26
2017-11-17T20:38:38.814Z,9.25
2017-11-17T20:40:40.382Z,9.22
2017-11-17T20:42:41.800Z,9.22
2017-11-17T20:44:43.367Z,9.22
2017-11-17T20:46:45.019Z,9.21
2017-11-17T20:48:46.357Z,9.21
2017-11-17T20:50:47.692Z,9.18
2017-11-17T20:52:49.358Z,9.20
2017-11-17T20:54:50.681Z,9.18
2017-11-17T20:56:51.962Z,9.14
2017-11-17T20:58:53.656Z,9.13
2017-11-17T21:00:55.174Z,9.13
2017-11-17T21:02:58.129Z,9.14
2017-11-17T21:04:59.441Z,9.11
2017-11-17T21:07:00.748Z,9.11
2017-11-17T21:09:02.280Z,9.10
2017-11-17T21:11:03.839Z,9.08
2017-11-17T21:13:06.087Z,9.08
2017-11-17T21:15:07.456Z,9.09
2017-11-17T21:17:09.738Z,9.05
2017-11-17T21:19:11.254Z,9.05
2017-11-17T21:21:12.592Z,9.05
2017-11-17T21:23:14.174Z,9.04
2017-11-17T21:25:15.599Z,9.04
2017-11-17T21:27:16.953Z,9.04
2017-11-17T21:29:18.277Z,9.04
2017-11-17T21:31:19.850Z,9.03
2017-11-17T21:33:21.489Z,9.00
2017-11-17T21:35:22.765Z,8.99
2017-11-17T21:37:24.297Z,8.97
2017-11-17T21:39:25.730Z,8.94
2017-11-17T21:41:27.032Z,8.93
2017-11-17T21:43:28.528Z,8.95
2017-11-17T21:45:29.983Z,8.94
2017-11-17T21:47:31.535Z,8.91
2017-11-17T21:49:32.852Z,8.93
2017-11-17T21:51:34.139Z,8.90
2017-11-17T21:53:35.658Z,8.90
2017-11-17T21:55:36.990Z,8.90
2017-11-17T21:57:38.350Z,8.87
2017-11-17T21:59:39.795Z,8.88
2017-11-17T22:01:41.377Z,8.89
2017-11-17T22:03:42.691Z,8.87
2017-11-17T22:05:44.009Z,8.88
2017-11-17T22:07:45.497Z,8.90
2017-11-17T22:09:46.839Z,8.89
2017-11-17T22:11:48.509Z,8.86
2017-11-17T22:13:49.782Z,8.84
2017-11-17T22:15:51.194Z,8.86
2017-11-17T22:17:53.541Z,8.84
2017-11-17T22:19:56.021Z,8.81
2017-11-17T22:21:57.470Z,8.74
2017-11-17T22:23:58.925Z,8.80
2017-11-17T22:26:00.264Z,8.78
2017-11-17T22:28:01.533Z,8.77
2017-11-17T22:30:02.730Z,8.91
2017-11-17T22:32:04.120Z,9.22
2017-11-17T22:34:05.547Z,9.66
2017-11-17T22:36:07.671Z,10.04
2017-11-17T22:38:09.890Z,10.23
2017-11-17T22:40:11.539Z,10.38
2017-11-17T22:42:12.955Z,10.50
2017-11-17T22:44:14.304Z,10.60
2017-11-17T22:46:15.884Z,10.67
2017-11-17T22:48:17.442Z,10.75
2017-11-17T22:50:19.093Z,10.82
2017-11-17T22:52:21.450Z,10.87
2017-11-17T22:54:22.829Z,10.93
2017-11-17T22:56:24.120Z,10.98
2017-11-17T22:58:26.503Z,11.03
2017-11-17T23:00:28.077Z,11.06
2017-11-17T23:02:29.711Z,11.09
2017-11-17T23:04:31.281Z,11.12
2017-11-17T23:06:32.817Z,11.17
2017-11-17T23:08:34.269Z,11.22
2017-11-17T23:10:35.602Z,11.28
2017-11-17T23:12:36.897Z,11.31
2017-11-17T23:14:38.402Z,11.30
2017-11-17T23:16:40.752Z,11.32
2017-11-17T23:18:41.983Z,11.37
2017-11-17T23:20:43.471Z,11.38
2017-11-17T23:22:44.712Z,11.37
2017-11-17T23:24:46.489Z,11.39
2017-11-17T23:26:47.905Z,11.36
2017-11-17T23:28:49.464Z,11.39
2017-11-17T23:30:50.892Z,11.37
2017-11-17T23:32:52.379Z,11.43
2017-11-17T23:34:53.799Z,11.46
2017-11-17T23:36:56.183Z,11.43
2017-11-17T23:38:57.513Z,11.44
2017-11-17T23:40:58.868Z,11.45
2017-11-17T23:43:01.436Z,11.45
2017-11-17T23:45:02.771Z,11.46
2017-11-17T23:47:04.036Z,11.44
2017-11-17T23:49:05.459Z,11.45
2017-11-17T23:51:07.035Z,11.44
2017-11-17T23:53:08.374Z,11.44
2017-11-17T23:55:09.829Z,11.42
2017-11-17T23:57:11.257Z,11.42
2017-11-17T23:59:13.750Z,11.40
